sensor_id;sensor_type;location;lat;lon;timestamp;pressure;altitude;pressure_sealevel;temperature;humidity
74621;BME280;64861;47.546;19.254;2022-12-11T00:00:33;97035.41;;;22.28;52.34
74621;BME280;64861;47.546;19.254;2022-12-11T00:03:01;97035.59;;;22.15;52.95
74621;BME280;64861;47.546;19.254;2022-12-11T00:05:26;97030.28;;;22.15;52.76
74621;BME280;64861;47.546;19.254;2022-12-11T00:07:52;97032.91;;;22.45;51.84
74621;BME280;64861;47.546;19.254;2022-12-11T00:10:17;97011.56;;;22.21;52.61
74621;BME280;64861;47.546;19.254;2022-12-11T00:12:43;96999.56;;;22.19;52.76
74621;BME280;64861;47.546;19.254;2022-12-11T00:15:08;96996.38;;;22.10;52.93
74621;BME280;64861;47.546;19.254;2022-12-11T00:17:34;97011.66;;;22.15;52.62
74621;BME280;64861;47.546;19.254;2022-12-11T00:19:59;97018.13;;;22.07;52.91
74621;BME280;64861;47.546;19.254;2022-12-11T00:22:25;97002.84;;;22.02;52.81
74621;BME280;64861;47.546;19.254;2022-12-11T00:24:50;96999.50;;;22.07;52.81
74621;BME280;64861;47.546;19.254;2022-12-11T00:27:16;96987.34;;;21.99;53.18
74621;BME280;64861;47.546;19.254;2022-12-11T00:29:41;96993.00;;;22.03;53.08
74621;BME280;64861;47.546;19.254;2022-12-11T00:32:07;97004.91;;;22.00;53.12
74621;BME280;64861;47.546;19.254;2022-12-11T00:34:32;96998.19;;;21.98;53.31
74621;BME280;64861;47.546;19.254;2022-12-11T00:36:58;96998.78;;;22.00;53.12
74621;BME280;64861;47.546;19.254;2022-12-11T00:39:23;96997.28;;;22.04;53.08
74621;BME280;64861;47.546;19.254;2022-12-11T00:41:49;96991.97;;;22.04;53.13
74621;BME280;64861;47.546;19.254;2022-12-11T00:44:14;96996.94;;;22.00;53.22
74621;BME280;64861;47.546;19.254;2022-12-11T00:46:40;96986.28;;;22.00;53.05
74621;BME280;64861;47.546;19.254;2022-12-11T00:49:05;96983.63;;;22.00;53.20
74621;BME280;64861;47.546;19.254;2022-12-11T00:51:30;96982.13;;;22.04;52.88
74621;BME280;64861;47.546;19.254;2022-12-11T00:53:56;96985.50;;;22.00;53.11
74621;BME280;64861;47.546;19.254;2022-12-11T00:56:22;96990.00;;;21.99;52.97
74621;BME280;64861;47.546;19.254;2022-12-11T00:58:48;96989.75;;;22.01;52.99
74621;BME280;64861;47.546;19.254;2022-12-11T01:01:17;96987.00;;;21.96;52.99
74621;BME280;64861;47.546;19.254;2022-12-11T01:03:43;96997.38;;;21.97;52.92
74621;BME280;64861;47.546;19.254;2022-12-11T01:06:16;97003.97;;;21.95;53.25
74621;BME280;64861;47.546;19.254;2022-12-11T01:08:42;96987.09;;;21.89;52.88
74621;BME280;64861;47.546;19.254;2022-12-11T01:11:11;96987.09;;;21.89;53.12
74621;BME280;64861;47.546;19.254;2022-12-11T01:13:38;96995.88;;;21.90;52.97
74621;BME280;64861;47.546;19.254;2022-12-11T01:16:12;96996.91;;;21.89;53.10
74621;BME280;64861;47.546;19.254;2022-12-11T01:18:39;96991.59;;;21.89;53.19
74621;BME280;64861;47.546;19.254;2022-12-11T01:21:07;97002.59;;;21.92;53.05
74621;BME280;64861;47.546;19.254;2022-12-11T01:23:32;97001.53;;;21.93;52.91
74621;BME280;64861;47.546;19.254;2022-12-11T01:26:04;97003.97;;;21.95;52.95
74621;BME280;64861;47.546;19.254;2022-12-11T01:28:30;97009.97;;;21.90;53.21
74621;BME280;64861;47.546;19.254;2022-12-11T01:30:55;97008.94;;;21.91;53.14
74621;BME280;64861;47.546;19.254;2022-12-11T01:33:21;96996.69;;;21.90;53.09
74621;BME280;64861;47.546;19.254;2022-12-11T01:35:46;97011.03;;;21.89;53.35
74621;BME280;64861;47.546;19.254;2022-12-11T01:38:11;97014.84;;;21.93;53.17
74621;BME280;64861;47.546;19.254;2022-12-11T01:40:37;97020.16;;;21.93;52.68
74621;BME280;64861;47.546;19.254;2022-12-11T01:43:02;97006.84;;;21.93;52.61
74621;BME280;64861;47.546;19.254;2022-12-11T01:46:00;97010.56;;;21.92;52.93
74621;BME280;64861;47.546;19.254;2022-12-11T01:48:28;97011.59;;;21.91;52.95
74621;BME280;64861;47.546;19.254;2022-12-11T01:50:58;97013.06;;;21.87;53.17
74621;BME280;64861;47.546;19.254;2022-12-11T01:53:32;97011.22;;;21.88;52.80
74621;BME280;64861;47.546;19.254;2022-12-11T01:55:59;97012.03;;;21.88;52.90
74621;BME280;64861;47.546;19.254;2022-12-11T01:58:29;97015.06;;;21.92;52.63
74621;BME280;64861;47.546;19.254;2022-12-11T02:00:56;97025.13;;;21.90;52.72
74621;BME280;64861;47.546;19.254;2022-12-11T02:03:23;97023.25;;;21.90;52.83
74621;BME280;64861;47.546;19.254;2022-12-11T02:05:49;97023.63;;;21.94;53.03
74621;BME280;64861;47.546;19.254;2022-12-11T02:08:14;97021.19;;;21.92;52.86
74621;BME280;64861;47.546;19.254;2022-12-11T02:19:04;97019.00;;;21.89;52.77
74621;BME280;64861;47.546;19.254;2022-12-11T02:21:39;97020.84;;;21.89;52.90
74621;BME280;64861;47.546;19.254;2022-12-11T02:24:51;97027.19;;;21.88;52.67
74621;BME280;64861;47.546;19.254;2022-12-11T02:30:08;97021.66;;;21.89;52.69
74621;BME280;64861;47.546;19.254;2022-12-11T02:32:44;97022.47;;;21.90;52.57
74621;BME280;64861;47.546;19.254;2022-12-11T02:37:44;97021.28;;;21.86;52.49
74621;BME280;64861;47.546;19.254;2022-12-11T02:40:14;97015.06;;;21.92;52.03
74621;BME280;64861;47.546;19.254;2022-12-11T02:42:44;97016.34;;;21.89;52.66
74621;BME280;64861;47.546;19.254;2022-12-11T02:45:13;97008.94;;;21.91;52.25
74621;BME280;64861;47.546;19.254;2022-12-11T02:47:40;97017.59;;;21.87;52.42
74621;BME280;64861;47.546;19.254;2022-12-11T02:50:10;97011.47;;;21.86;52.70
74621;BME280;64861;47.546;19.254;2022-12-11T02:52:38;97008.81;;;21.86;52.49
74621;BME280;64861;47.546;19.254;2022-12-11T02:55:06;97011.03;;;21.89;52.61
74621;BME280;64861;47.546;19.254;2022-12-11T02:57:44;97013.06;;;21.87;52.43
74621;BME280;64861;47.546;19.254;2022-12-11T03:00:12;97006.16;;;21.86;52.67
74621;BME280;64861;47.546;19.254;2022-12-11T03:02:37;97006.34;;;21.85;52.29
74621;BME280;64861;47.546;19.254;2022-12-11T03:05:04;97011.03;;;21.89;52.30
74621;BME280;64861;47.546;19.254;2022-12-11T03:07:35;96996.09;;;21.88;52.12
74621;BME280;64861;47.546;19.254;2022-12-11T03:10:04;97002.81;;;21.91;51.97
74621;BME280;64861;47.546;19.254;2022-12-11T03:12:34;96996.91;;;21.89;52.22
74621;BME280;64861;47.546;19.254;2022-12-11T03:15:04;96998.75;;;21.88;52.02
74621;BME280;64861;47.546;19.254;2022-12-11T03:25:58;96999.78;;;21.87;52.26
74621;BME280;64861;47.546;19.254;2022-12-11T03:28:33;96997.81;;;21.83;51.99
74621;BME280;64861;47.546;19.254;2022-12-11T03:31:07;96993.88;;;21.85;52.28
74621;BME280;64861;47.546;19.254;2022-12-11T03:33:39;96986.84;;;21.91;52.12
74621;BME280;64861;47.546;19.254;2022-12-11T03:36:16;96982.34;;;21.91;51.99
74621;BME280;64861;47.546;19.254;2022-12-11T03:38:51;96986.72;;;21.86;52.02
74621;BME280;64861;47.546;19.254;2022-12-11T03:41:21;96983.22;;;21.85;52.28
74621;BME280;64861;47.546;19.254;2022-12-11T03:43:50;96978.50;;;21.87;51.82
74621;BME280;64861;47.546;19.254;2022-12-11T03:46:17;96981.28;;;21.80;52.00
74621;BME280;64861;47.546;19.254;2022-12-11T03:48:46;96986.72;;;21.86;51.92
74621;BME280;64861;47.546;19.254;2022-12-11T03:51:13;97000.22;;;21.84;51.75
74621;BME280;64861;47.546;19.254;2022-12-11T03:53:41;96999.66;;;21.82;51.94
74621;BME280;64861;47.546;19.254;2022-12-11T03:56:09;96997.22;;;21.80;51.83
74621;BME280;64861;47.546;19.254;2022-12-11T03:58:36;96998.25;;;21.79;51.68
74621;BME280;64861;47.546;19.254;2022-12-11T04:01:03;96993.75;;;21.80;51.85
74621;BME280;64861;47.546;19.254;2022-12-11T04:03:28;96991.31;;;21.78;52.01
74621;BME280;64861;47.546;19.254;2022-12-11T04:05:54;96997.22;;;21.80;51.88
74621;BME280;64861;47.546;19.254;2022-12-11T04:08:21;96990.28;;;21.79;51.84
74621;BME280;64861;47.546;19.254;2022-12-11T04:10:47;96995.72;;;21.85;51.86
74621;BME280;64861;47.546;19.254;2022-12-11T04:13:13;96993.66;;;21.87;51.68
74621;BME280;64861;47.546;19.254;2022-12-11T04:15:39;97002.44;;;21.87;51.70
74621;BME280;64861;47.546;19.254;2022-12-11T04:18:06;97005.09;;;21.87;51.81
74621;BME280;64861;47.546;19.254;2022-12-11T04:20:54;97004.28;;;21.87;51.61
74621;BME280;64861;47.546;19.254;2022-12-11T04:23:39;97013.31;;;21.86;51.88
74621;BME280;64861;47.546;19.254;2022-12-11T04:26:24;97005.56;;;21.84;51.44
74621;BME280;64861;47.546;19.254;2022-12-11T04:28:50;97015.63;;;21.82;51.62
74621;BME280;64861;47.546;19.254;2022-12-11T04:31:20;97028.69;;;21.84;51.85
74621;BME280;64861;47.546;19.254;2022-12-11T04:33:46;97016.19;;;21.84;51.39
74621;BME280;64861;47.546;19.254;2022-12-11T04:36:12;97025.22;;;21.83;51.36
74621;BME280;64861;47.546;19.254;2022-12-11T04:38:38;97016.28;;;21.77;51.91
74621;BME280;64861;47.546;19.254;2022-12-11T04:41:07;97019.97;;;21.76;51.54
74621;BME280;64861;47.546;19.254;2022-12-11T04:43:34;97029.13;;;21.80;51.57
74621;BME280;64861;47.546;19.254;2022-12-11T04:46:01;97036.66;;;21.84;51.44
74621;BME280;64861;47.546;19.254;2022-12-11T04:48:27;97044.63;;;21.84;51.53
74621;BME280;64861;47.546;19.254;2022-12-11T04:50:53;97049.13;;;21.83;51.46
74621;BME280;64861;47.546;19.254;2022-12-11T04:53:18;97047.13;;;21.78;51.82
74621;BME280;64861;47.546;19.254;2022-12-11T04:55:43;97056.16;;;21.77;51.34
74621;BME280;64861;47.546;19.254;2022-12-11T04:58:09;97077.56;;;21.83;51.25
74621;BME280;64861;47.546;19.254;2022-12-11T05:00:34;97083.91;;;21.81;51.78
74621;BME280;64861;47.546;19.254;2022-12-11T05:03:00;97075.38;;;21.79;51.58
74621;BME280;64861;47.546;19.254;2022-12-11T05:05:25;97079.19;;;21.84;51.47
74621;BME280;64861;47.546;19.254;2022-12-11T05:07:51;97078.59;;;21.81;51.59
74621;BME280;64861;47.546;19.254;2022-12-11T05:10:16;97080.81;;;21.85;51.40
74621;BME280;64861;47.546;19.254;2022-12-11T05:12:41;97081.69;;;21.78;51.47
74621;BME280;64861;47.546;19.254;2022-12-11T05:15:07;97080.31;;;21.76;51.35
74621;BME280;64861;47.546;19.254;2022-12-11T05:17:33;97087.84;;;21.79;51.14
74621;BME280;64861;47.546;19.254;2022-12-11T05:19:58;97093.97;;;21.79;51.68
74621;BME280;64861;47.546;19.254;2022-12-11T05:22:24;97087.59;;;21.80;50.88
74621;BME280;64861;47.546;19.254;2022-12-11T05:24:49;97095.00;;;21.78;51.22
74621;BME280;64861;47.546;19.254;2022-12-11T05:27:14;97094.41;;;21.76;51.35
74621;BME280;64861;47.546;19.254;2022-12-11T05:29:40;97098.47;;;21.79;51.29
74621;BME280;64861;47.546;19.254;2022-12-11T05:32:05;97097.44;;;21.80;51.32
74621;BME280;64861;47.546;19.254;2022-12-11T05:34:31;97084.34;;;21.78;51.42
74621;BME280;64861;47.546;19.254;2022-12-11T05:36:57;97092.13;;;21.80;51.15
74621;BME280;64861;47.546;19.254;2022-12-11T05:39:22;97094.34;;;21.83;51.23
74621;BME280;64861;47.546;19.254;2022-12-11T05:41:48;97100.91;;;21.80;50.99
74621;BME280;64861;47.546;19.254;2022-12-11T05:44:13;97097.88;;;21.77;50.94
74621;BME280;64861;47.546;19.254;2022-12-11T05:46:39;97100.31;;;21.78;51.05
74621;BME280;64861;47.546;19.254;2022-12-11T05:49:04;97090.72;;;21.77;51.34
74621;BME280;64861;47.546;19.254;2022-12-11T05:51:31;97090.72;;;21.77;51.55
74621;BME280;64861;47.546;19.254;2022-12-11T05:53:58;97095.22;;;21.77;51.13
74621;BME280;64861;47.546;19.254;2022-12-11T05:56:29;97098.25;;;21.80;51.05
74621;BME280;64861;47.546;19.254;2022-12-11T05:58:56;97096.84;;;21.78;50.98
74621;BME280;64861;47.546;19.254;2022-12-11T06:01:28;97102.59;;;21.75;50.96
74621;BME280;64861;47.546;19.254;2022-12-11T06:03:55;97107.72;;;21.76;51.50
74621;BME280;64861;47.546;19.254;2022-12-11T06:06:21;97121.19;;;21.75;51.17
74621;BME280;64861;47.546;19.254;2022-12-11T06:08:52;97124.09;;;21.73;51.44
74621;BME280;64861;47.546;19.254;2022-12-11T06:11:18;97126.88;;;21.78;51.40
74621;BME280;64861;47.546;19.254;2022-12-11T06:13:43;97121.44;;;21.73;50.89
74621;BME280;64861;47.546;19.254;2022-12-11T06:16:09;97128.59;;;21.73;51.53
74621;BME280;64861;47.546;19.254;2022-12-11T06:18:39;97134.94;;;21.72;51.54
74621;BME280;64861;47.546;19.254;2022-12-11T06:21:15;97136.13;;;21.76;51.40
74621;BME280;64861;47.546;19.254;2022-12-11T06:23:42;97148.03;;;21.73;51.27
74621;BME280;64861;47.546;19.254;2022-12-11T06:26:09;97160.44;;;21.79;51.17
74621;BME280;64861;47.546;19.254;2022-12-11T06:28:34;97153.47;;;21.78;51.03
74621;BME280;64861;47.546;19.254;2022-12-11T06:31:00;97150.00;;;21.78;51.41
74621;BME280;64861;47.546;19.254;2022-12-11T06:33:26;97167.00;;;21.77;50.88
74621;BME280;64861;47.546;19.254;2022-12-11T06:35:51;97164.53;;;21.75;50.84
74621;BME280;64861;47.546;19.254;2022-12-11T06:38:17;97172.91;;;21.79;50.66
74621;BME280;64861;47.546;19.254;2022-12-11T06:40:43;97172.31;;;21.77;50.97
74621;BME280;64861;47.546;19.254;2022-12-11T06:43:09;97176.03;;;21.76;50.91
74621;BME280;64861;47.546;19.254;2022-12-11T06:45:36;97186.66;;;21.76;50.76
74621;BME280;64861;47.546;19.254;2022-12-11T06:48:02;97198.91;;;21.77;50.95
74621;BME280;64861;47.546;19.254;2022-12-11T06:50:27;97195.19;;;21.78;50.64
74621;BME280;64861;47.546;19.254;2022-12-11T06:52:54;97202.81;;;21.74;50.86
74621;BME280;64861;47.546;19.254;2022-12-11T06:55:20;97209.97;;;21.74;51.16
74621;BME280;64861;47.546;19.254;2022-12-11T06:57:45;97202.00;;;21.74;50.82
74621;BME280;64861;47.546;19.254;2022-12-11T07:00:11;97212.19;;;21.77;51.04
74621;BME280;64861;47.546;19.254;2022-12-11T07:02:37;97199.50;;;21.79;50.79
74621;BME280;64861;47.546;19.254;2022-12-11T07:05:03;97206.88;;;21.77;50.63
74621;BME280;64861;47.546;19.254;2022-12-11T07:07:28;97214.47;;;21.73;51.07
74621;BME280;64861;47.546;19.254;2022-12-11T07:09:54;97219.38;;;21.76;50.95
74621;BME280;64861;47.546;19.254;2022-12-11T07:12:20;97211.16;;;21.78;50.69
74621;BME280;64861;47.546;19.254;2022-12-11T07:14:45;97209.31;;;21.78;50.63
74621;BME280;64861;47.546;19.254;2022-12-11T07:17:11;97210.28;;;21.84;50.70
74621;BME280;64861;47.546;19.254;2022-12-11T07:19:36;97212.19;;;21.77;50.59
74621;BME280;64861;47.546;19.254;2022-12-11T07:22:02;97216.47;;;21.78;50.99
74621;BME280;64861;47.546;19.254;2022-12-11T07:24:27;97218.13;;;21.79;50.45
74621;BME280;64861;47.546;19.254;2022-12-11T07:26:52;97214.03;;;21.76;50.48
74621;BME280;64861;47.546;19.254;2022-12-11T07:29:18;97220.16;;;21.77;50.37
74621;BME280;64861;47.546;19.254;2022-12-11T07:31:43;97226.91;;;21.79;50.29
74621;BME280;64861;47.546;19.254;2022-12-11T07:34:12;97233.66;;;21.75;50.51
74621;BME280;64861;47.546;19.254;2022-12-11T07:36:38;97236.31;;;21.75;50.49
74621;BME280;64861;47.546;19.254;2022-12-11T07:39:03;97245.06;;;21.83;50.53
74621;BME280;64861;47.546;19.254;2022-12-11T07:41:29;97243.44;;;21.81;50.40
74621;BME280;64861;47.546;19.254;2022-12-11T07:43:58;97249.19;;;21.78;50.50
74621;BME280;64861;47.546;19.254;2022-12-11T07:46:25;97249.13;;;21.85;50.47
74621;BME280;64861;47.546;19.254;2022-12-11T07:48:51;97251.13;;;21.90;50.13
74621;BME280;64861;47.546;19.254;2022-12-11T07:51:28;97246.47;;;21.85;50.35
74621;BME280;64861;47.546;19.254;2022-12-11T07:53:59;97245.00;;;21.89;50.16
74621;BME280;64861;47.546;19.254;2022-12-11T07:56:26;97254.06;;;21.81;50.29
74621;BME280;64861;47.546;19.254;2022-12-11T07:58:53;97262.09;;;21.75;50.01
74621;BME280;64861;47.546;19.254;2022-12-11T08:01:21;97278.53;;;21.90;50.60
74621;BME280;64861;47.546;19.254;2022-12-11T08:03:47;97280.81;;;21.87;50.59
74621;BME280;64861;47.546;19.254;2022-12-11T08:06:13;97285.91;;;21.88;50.55
74621;BME280;64861;47.546;19.254;2022-12-11T08:08:39;97294.56;;;21.84;51.58
74621;BME280;64861;47.546;19.254;2022-12-11T08:11:08;97315.16;;;21.88;51.79
74621;BME280;64861;47.546;19.254;2022-12-11T08:13:34;97307.34;;;21.93;51.74
74621;BME280;64861;47.546;19.254;2022-12-11T08:16:04;97309.84;;;21.88;51.57
74621;BME280;64861;47.546;19.254;2022-12-11T08:18:32;97327.31;;;22.02;51.69
74621;BME280;64861;47.546;19.254;2022-12-11T08:20:58;97327.31;;;22.02;51.68
74621;BME280;64861;47.546;19.254;2022-12-11T08:23:23;97329.38;;;22.00;51.81
74621;BME280;64861;47.546;19.254;2022-12-11T08:25:48;97344.47;;;22.07;51.01
74621;BME280;64861;47.546;19.254;2022-12-11T08:28:14;97342.66;;;22.00;51.25
74621;BME280;64861;47.546;19.254;2022-12-11T08:30:39;97344.81;;;22.10;50.59
74621;BME280;64861;47.546;19.254;2022-12-11T08:33:05;97355.84;;;22.14;50.55
74621;BME280;64861;47.546;19.254;2022-12-11T08:35:31;97356.34;;;22.04;50.88
74621;BME280;64861;47.546;19.254;2022-12-11T08:37:56;97361.47;;;22.05;50.83
74621;BME280;64861;47.546;19.254;2022-12-11T08:40:22;97356.66;;;22.14;50.47
74621;BME280;64861;47.546;19.254;2022-12-11T08:42:47;97358.94;;;22.11;51.15
74621;BME280;64861;47.546;19.254;2022-12-11T08:45:13;97363.50;;;21.78;50.29
74621;BME280;64861;47.546;19.254;2022-12-11T08:47:38;97369.00;;;21.84;51.22
74621;BME280;64861;47.546;19.254;2022-12-11T08:50:04;97369.59;;;21.86;51.07
74621;BME280;64861;47.546;19.254;2022-12-11T08:52:30;97379.56;;;21.90;51.26
74621;BME280;64861;47.546;19.254;2022-12-11T08:54:58;97376.69;;;21.92;51.31
74621;BME280;64861;47.546;19.254;2022-12-11T08:57:23;97378.34;;;21.93;51.68
74621;BME280;64861;47.546;19.254;2022-12-11T08:59:49;97373.16;;;21.98;51.20
74621;BME280;64861;47.546;19.254;2022-12-11T09:02:14;97384.41;;;22.00;51.14
74621;BME280;64861;47.546;19.254;2022-12-11T09:04:40;97394.06;;;21.94;51.50
74621;BME280;64861;47.546;19.254;2022-12-11T09:07:05;97389.28;;;22.03;50.84
74621;BME280;64861;47.546;19.254;2022-12-11T09:09:31;97395.03;;;22.00;51.25
74621;BME280;64861;47.546;19.254;2022-12-11T09:11:56;97400.00;;;21.96;51.09
74621;BME280;64861;47.546;19.254;2022-12-11T09:14:22;97397.66;;;22.07;50.70
74621;BME280;64861;47.546;19.254;2022-12-11T09:16:47;97392.13;;;19.62;39.62
74621;BME280;64861;47.546;19.254;2022-12-11T09:19:14;97401.38;;;11.27;46.07
74621;BME280;64861;47.546;19.254;2022-12-11T09:21:40;97403.03;;;8.20;53.14
74621;BME280;64861;47.546;19.254;2022-12-11T09:24:07;97414.25;;;8.21;55.30
74621;BME280;64861;47.546;19.254;2022-12-11T09:26:33;97411.59;;;12.78;49.69
74621;BME280;64861;47.546;19.254;2022-12-11T09:29:01;97393.84;;;15.85;45.38
74621;BME280;64861;47.546;19.254;2022-12-11T09:31:29;97395.50;;;17.19;45.10
74621;BME280;64861;47.546;19.254;2022-12-11T09:33:58;97396.75;;;18.09;44.34
74621;BME280;64861;47.546;19.254;2022-12-11T09:36:24;97395.72;;;18.73;43.51
74621;BME280;64861;47.546;19.254;2022-12-11T09:38:50;97407.91;;;19.15;43.68
74621;BME280;64861;47.546;19.254;2022-12-11T09:46:19;97394.41;;;19.85;43.44
74621;BME280;64861;47.546;19.254;2022-12-11T09:48:46;97390.97;;;19.91;44.12
74621;BME280;64861;47.546;19.254;2022-12-11T09:51:38;97391.75;;;20.18;44.61
74621;BME280;64861;47.546;19.254;2022-12-11T09:54:05;97381.72;;;20.40;44.57
74621;BME280;64861;47.546;19.254;2022-12-11T10:02:39;97371.06;;;20.67;45.65
74621;BME280;64861;47.546;19.254;2022-12-11T10:05:31;97380.41;;;20.76;46.12
74621;BME280;64861;47.546;19.254;2022-12-11T10:08:07;97384.09;;;20.75;46.13
74621;BME280;64861;47.546;19.254;2022-12-11T10:10:41;97372.41;;;20.82;46.09
74621;BME280;64861;47.546;19.254;2022-12-11T10:18:35;97379.78;;;20.87;46.19
74621;BME280;64861;47.546;19.254;2022-12-11T10:21:02;97385.47;;;20.91;46.01
74621;BME280;64861;47.546;19.254;2022-12-11T10:23:37;97387.91;;;20.92;46.06
74621;BME280;64861;47.546;19.254;2022-12-11T10:26:10;97405.06;;;20.96;45.98
74621;BME280;64861;47.546;19.254;2022-12-11T10:28:37;97413.63;;;20.98;46.21
74621;BME280;64861;47.546;19.254;2022-12-11T10:34:00;97414.00;;;21.02;45.84
74621;BME280;64861;47.546;19.254;2022-12-11T10:36:33;97429.94;;;21.02;46.56
74621;BME280;64861;47.546;19.254;2022-12-11T10:39:00;97429.13;;;21.01;47.02
74621;BME280;64861;47.546;19.254;2022-12-11T10:41:41;97426.44;;;21.08;46.58
74621;BME280;64861;47.546;19.254;2022-12-11T10:46:48;97419.28;;;21.08;46.98
74621;BME280;64861;47.546;19.254;2022-12-11T10:49:28;97420.03;;;21.22;47.59
74621;BME280;64861;47.546;19.254;2022-12-11T10:51:56;97416.56;;;21.22;47.80
74621;BME280;64861;47.546;19.254;2022-12-11T10:54:29;97428.41;;;21.39;48.51
74621;BME280;64861;47.546;19.254;2022-12-11T10:56:55;97435.28;;;21.47;49.43
74621;BME280;64861;47.546;19.254;2022-12-11T11:02:00;97441.41;;;21.47;48.11
74621;BME280;64861;47.546;19.254;2022-12-11T11:04:32;97446.53;;;21.42;48.32
74621;BME280;64861;47.546;19.254;2022-12-11T11:07:11;97438.00;;;21.40;47.92
74621;BME280;64861;47.546;19.254;2022-12-11T11:09:37;97434.72;;;21.38;47.62
74621;BME280;64861;47.546;19.254;2022-12-11T11:12:04;97435.75;;;21.37;47.81
74621;BME280;64861;47.546;19.254;2022-12-11T11:14:41;97441.47;;;21.34;47.91
74621;BME280;64861;47.546;19.254;2022-12-11T11:17:13;97437.59;;;21.37;47.97
74621;BME280;64861;47.546;19.254;2022-12-11T11:19:39;97440.44;;;21.35;48.06
74621;BME280;64861;47.546;19.254;2022-12-11T11:22:15;97435.13;;;21.35;48.41
74621;BME280;64861;47.546;19.254;2022-12-11T11:24:52;97434.13;;;21.36;48.30
74621;BME280;64861;47.546;19.254;2022-12-11T11:27:34;97429.22;;;21.33;48.51
74621;BME280;64861;47.546;19.254;2022-12-11T11:30:04;97428.81;;;21.36;49.07
74621;BME280;64861;47.546;19.254;2022-12-11T11:32:38;97435.91;;;21.42;49.32
74621;BME280;64861;47.546;19.254;2022-12-11T11:35:17;97435.72;;;21.44;49.82
74621;BME280;64861;47.546;19.254;2022-12-11T11:37:46;97444.28;;;21.52;51.41
74621;BME280;64861;47.546;19.254;2022-12-11T11:40:24;97446.03;;;21.58;52.47
74621;BME280;64861;47.546;19.254;2022-12-11T11:45:30;97458.03;;;21.29;47.79
74621;BME280;64861;47.546;19.254;2022-12-11T11:50:44;97460.81;;;21.86;53.98
74621;BME280;64861;47.546;19.254;2022-12-11T11:53:21;97456.00;;;22.01;51.32
74621;BME280;64861;47.546;19.254;2022-12-11T11:56:01;97463.16;;;22.01;51.08
74621;BME280;64861;47.546;19.254;2022-12-11T11:58:52;97478.09;;;22.02;51.29
74621;BME280;64861;47.546;19.254;2022-12-11T12:01:20;97481.53;;;22.09;50.95
74621;BME280;64861;47.546;19.254;2022-12-11T12:03:47;97485.38;;;22.13;50.56
74621;BME280;64861;47.546;19.254;2022-12-11T12:14:13;97495.31;;;21.99;50.45
74621;BME280;64861;47.546;19.254;2022-12-11T12:22:39;97506.63;;;21.88;50.85
74621;BME280;64861;47.546;19.254;2022-12-11T12:25:38;97492.88;;;21.91;50.73
74621;BME280;64861;47.546;19.254;2022-12-11T12:31:16;97499.28;;;21.84;50.00
74621;BME280;64861;47.546;19.254;2022-12-11T12:34:09;97505.22;;;21.86;49.94
74621;BME280;64861;47.546;19.254;2022-12-11T12:39:53;97492.97;;;21.78;49.85
74621;BME280;64861;47.546;19.254;2022-12-11T12:42:33;97488.59;;;21.90;49.22
74621;BME280;64861;47.546;19.254;2022-12-11T12:47:27;97498.72;;;21.75;49.67
74621;BME280;64861;47.546;19.254;2022-12-11T12:49:57;97509.34;;;21.75;49.48
74621;BME280;64861;47.546;19.254;2022-12-11T12:52:35;97513.84;;;21.74;49.42
74621;BME280;64861;47.546;19.254;2022-12-11T12:55:21;97517.31;;;21.75;49.26
74621;BME280;64861;47.546;19.254;2022-12-11T12:57:53;97521.66;;;21.69;49.44
74621;BME280;64861;47.546;19.254;2022-12-11T13:02:58;97529.41;;;21.71;49.55
74621;BME280;64861;47.546;19.254;2022-12-11T13:05:28;97534.53;;;21.72;49.60
74621;BME280;64861;47.546;19.254;2022-12-11T13:08:02;97543.34;;;21.66;49.47
74621;BME280;64861;47.546;19.254;2022-12-11T13:10:40;97553.19;;;21.66;49.23
74621;BME280;64861;47.546;19.254;2022-12-11T13:13:46;97555.38;;;21.69;49.55
74621;BME280;64861;47.546;19.254;2022-12-11T13:18:40;97565.00;;;21.70;49.17
74621;BME280;64861;47.546;19.254;2022-12-11T13:21:31;97563.78;;;21.72;49.32
74621;BME280;64861;47.546;19.254;2022-12-11T13:24:44;97585.63;;;21.74;48.89
74621;BME280;64861;47.546;19.254;2022-12-11T13:27:22;97584.44;;;21.70;49.22
74621;BME280;64861;47.546;19.254;2022-12-11T13:29:48;97586.88;;;21.72;48.76
74621;BME280;64861;47.546;19.254;2022-12-11T13:34:49;97577.06;;;21.72;49.75
74621;BME280;64861;47.546;19.254;2022-12-11T13:37:37;97590.97;;;21.68;49.45
74621;BME280;64861;47.546;19.254;2022-12-11T13:40:08;97585.66;;;21.68;47.11
74621;BME280;64861;47.546;19.254;2022-12-11T13:45:25;97602.16;;;22.60;45.98
74621;BME280;64861;47.546;19.254;2022-12-11T13:47:52;97605.81;;;22.90;45.09
74621;BME280;64861;47.546;19.254;2022-12-11T17:40:17;97766.25;;;21.63;44.69
74621;BME280;64861;47.546;19.254;2022-12-11T17:42:43;97767.28;;;21.55;45.19
74621;BME280;64861;47.546;19.254;2022-12-11T17:45:09;97767.28;;;21.48;45.73
74621;BME280;64861;47.546;19.254;2022-12-11T17:47:35;97773.63;;;21.54;45.85
74621;BME280;64861;47.546;19.254;2022-12-11T17:50:01;97772.59;;;21.55;45.91
74621;BME280;64861;47.546;19.254;2022-12-11T17:52:27;97769.91;;;21.62;46.03
74621;BME280;64861;47.546;19.254;2022-12-11T17:54:54;97778.09;;;21.67;46.33
74621;BME280;64861;47.546;19.254;2022-12-11T17:57:19;97780.38;;;21.63;46.61
74621;BME280;64861;47.546;19.254;2022-12-11T17:59:45;97775.03;;;21.63;46.65
74621;BME280;64861;47.546;19.254;2022-12-11T18:02:10;97776.66;;;21.64;46.96
74621;BME280;64861;47.546;19.254;2022-12-11T18:04:39;97782.22;;;21.63;47.26
74621;BME280;64861;47.546;19.254;2022-12-11T18:07:05;97774.41;;;21.61;47.59
74621;BME280;64861;47.546;19.254;2022-12-11T18:09:31;97781.59;;;21.61;47.43
74621;BME280;64861;47.546;19.254;2022-12-11T18:11:56;97777.91;;;21.62;47.75
74621;BME280;64861;47.546;19.254;2022-12-11T18:14:21;97778.72;;;21.62;47.86